Time;durP1;ratioP1;P1;durP2;ratioP2;P2;SDS_P1;SDS_P2;PMS_P1;PMS_P2;Temp;Humidity;BMP_temperature;BMP_pressure;BME280_temperature;BME280_humidity;BME280_pressure;Samples;Min_cycle;Max_cycle;Signal;HPM_P1;HPM_P2
2022/10/18 00:01:21;;;;;;;9.00;8.70;;;13.50;99.90;;;;;;5140120;28;20224;-80
2022/10/18 00:03:48;;;;;;;8.40;8.20;;;13.50;99.90;;;;;;5140659;28;20272;-80
2022/10/18 00:06:16;;;;;;;8.20;8.00;;;13.40;99.90;;;;;;5139693;27;20233;-81
2022/10/18 00:08:43;;;;;;;8.30;8.10;;;13.40;99.90;;;;;;5140567;27;20268;-80
2022/10/18 00:11:11;;;;;;;8.63;8.43;;;13.40;99.90;;;;;;5139893;27;20243;-80
2022/10/18 00:13:38;;;;;;;9.03;8.73;;;13.30;99.90;;;;;;5135470;28;20228;-80
2022/10/18 00:16:18;;;;;;;8.90;8.60;;;13.30;99.90;;;;;;5132953;28;20267;-81
2022/10/18 00:18:47;;;;;;;9.00;8.70;;;13.30;99.90;;;;;;5126488;28;20280;-80
2022/10/18 00:21:20;;;;;;;9.20;8.90;;;13.30;99.90;;;;;;5122617;27;20255;-80
2022/10/18 00:23:49;;;;;;;9.10;8.80;;;13.20;99.90;;;;;;5122287;28;20260;-81
2022/10/18 00:26:19;;;;;;;9.03;8.73;;;13.20;99.90;;;;;;5120984;28;20798;-80
2022/10/18 00:28:50;;;;;;;8.80;8.60;;;13.20;99.90;;;;;;5117395;28;20235;-81
2022/10/18 00:31:23;;;;;;;9.00;8.70;;;13.20;99.90;;;;;;5099747;28;20610;-81
2022/10/18 00:33:53;;;;;;;9.00;8.70;;;13.20;99.90;;;;;;5099796;28;20342;-80
2022/10/18 00:36:21;;;;;;;9.00;8.70;;;13.20;99.90;;;;;;5109581;28;20233;-80
2022/10/18 00:38:49;;;;;;;8.97;8.67;;;13.20;99.90;;;;;;5117908;28;20233;-80
2022/10/18 00:41:19;;;;;;;9.17;8.87;;;13.20;99.90;;;;;;5119020;27;20232;-81
2022/10/18 00:43:56;;;;;;;9.13;8.83;;;13.20;99.90;;;;;;5110820;28;20255;-81
2022/10/18 00:46:27;;;;;;;9.13;8.83;;;13.20;99.90;;;;;;5099634;28;20241;-80
2022/10/18 00:48:58;;;;;;;8.93;8.63;;;13.10;99.90;;;;;;5099635;28;20225;-81
2022/10/18 00:51:30;;;;;;;8.67;8.47;;;13.10;99.90;;;;;;5099672;28;20237;-80
2022/10/18 00:53:59;;;;;;;9.00;8.70;;;13.10;99.90;;;;;;5099715;28;20235;-80
2022/10/18 00:56:27;;;;;;;9.17;8.87;;;13.10;99.90;;;;;;5098745;28;20308;-81
2022/10/18 00:58:55;;;;;;;9.10;8.80;;;13.10;99.90;;;;;;5099157;28;20245;-80
2022/10/18 01:01:24;;;;;;;9.37;9.07;;;13.00;99.90;;;;;;5099765;28;20237;-81
2022/10/18 01:03:52;;;;;;;9.13;8.83;;;13.00;99.90;;;;;;5100314;28;20328;-81
2022/10/18 01:06:20;;;;;;;9.40;9.10;;;13.00;99.90;;;;;;5098773;28;20240;-80
2022/10/18 01:09:05;;;;;;;9.30;9.00;;;13.00;99.90;;;;;;5099586;28;20225;-81
2022/10/18 01:12:10;;;;;;;9.13;8.83;;;13.00;99.90;;;;;;5098906;28;20233;-82
2022/10/18 01:14:47;;;;;;;9.10;8.80;;;13.00;99.90;;;;;;5099269;28;21122;-80
2022/10/18 01:17:25;;;;;;;9.20;8.90;;;12.90;99.90;;;;;;5101891;28;20229;-80
2022/10/18 01:20:52;;;;;;;9.00;8.70;;;12.90;99.90;;;;;;5110853;28;20267;-80
2022/10/18 01:23:31;;;;;;;8.63;8.43;;;12.90;99.90;;;;;;5035891;28;20275;-80
2022/10/18 01:26:18;;;;;;;8.47;8.27;;;12.90;99.90;;;;;;5103911;28;20311;-81
2022/10/18 01:28:59;;;;;;;8.67;8.47;;;12.90;99.90;;;;;;5118484;28;20235;-81
2022/10/18 01:31:33;;;;;;;8.40;8.20;;;12.80;99.90;;;;;;5120089;27;20243;-80
2022/10/18 01:34:05;;;;;;;8.50;8.30;;;12.80;99.90;;;;;;5125795;28;20364;-80
2022/10/18 01:36:37;;;;;;;8.73;8.53;;;12.80;99.90;;;;;;5120183;28;20647;-80
2022/10/18 01:39:09;;;;;;;9.10;8.80;;;12.80;99.90;;;;;;5120419;28;20235;-80
2022/10/18 01:41:39;;;;;;;8.97;8.70;;;12.70;99.90;;;;;;5119084;28;20249;-81
2022/10/18 01:44:13;;;;;;;8.70;8.50;;;12.70;99.90;;;;;;5119226;28;20232;-80
2022/10/18 01:46:44;;;;;;;9.00;8.70;;;12.60;99.90;;;;;;5119918;28;20768;-81
2022/10/18 01:49:12;;;;;;;9.07;8.77;;;12.60;99.90;;;;;;5118931;28;20213;-80
2022/10/18 01:51:40;;;;;;;9.03;8.73;;;12.50;99.90;;;;;;5119675;28;20271;-80
2022/10/18 01:54:08;;;;;;;8.77;8.57;;;12.50;99.90;;;;;;5118445;28;20232;-81
2022/10/18 01:56:43;;;;;;;8.90;8.63;;;12.50;99.90;;;;;;5119673;28;20248;-81
2022/10/18 01:59:33;;;;;;;8.73;8.53;;;12.40;99.90;;;;;;5101444;28;20317;-80
2022/10/18 02:02:12;;;;;;;9.07;8.77;;;12.40;99.90;;;;;;5099116;28;20232;-81
2022/10/18 02:04:48;;;;;;;9.10;8.80;;;12.40;99.90;;;;;;5098796;28;20319;-80
2022/10/18 02:07:27;;;;;;;9.10;8.80;;;12.40;99.90;;;;;;5099084;28;20280;-81
2022/10/18 02:10:04;;;;;;;9.50;9.20;;;12.40;99.90;;;;;;5098607;28;20245;-81
2022/10/18 02:12:34;;;;;;;9.00;8.70;;;12.30;99.90;;;;;;5099102;28;20226;-80
2022/10/18 02:15:02;;;;;;;9.10;8.80;;;12.30;99.90;;;;;;5100227;28;20226;-81
2022/10/18 02:17:33;;;;;;;9.20;8.90;;;12.30;99.90;;;;;;5100025;28;20229;-80
2022/10/18 02:20:02;;;;;;;9.20;8.90;;;12.30;99.90;;;;;;5097627;28;20233;-80
2022/10/18 02:22:33;;;;;;;9.00;8.70;;;12.30;99.90;;;;;;5097756;28;20289;-82
2022/10/18 02:25:05;;;;;;;9.10;8.80;;;12.30;99.90;;;;;;5097149;28;20296;-80
2022/10/18 02:27:33;;;;;;;9.20;8.90;;;12.30;99.90;;;;;;5097843;28;20251;-81
2022/10/18 02:30:01;;;;;;;9.10;8.80;;;12.30;99.90;;;;;;5097032;28;20229;-81
2022/10/18 02:32:37;;;;;;;9.03;8.73;;;12.30;99.90;;;;;;5098876;28;20236;-80
2022/10/18 02:35:10;;;;;;;9.13;8.83;;;12.30;99.90;;;;;;5098753;28;20225;-80
2022/10/18 02:37:40;;;;;;;9.07;8.77;;;12.30;99.90;;;;;;5099354;28;20253;-80
2022/10/18 02:40:10;;;;;;;9.00;8.70;;;12.30;99.90;;;;;;5098299;28;20244;-80
2022/10/18 02:42:41;;;;;;;9.00;8.70;;;12.30;99.90;;;;;;5098327;28;20226;-81
2022/10/18 02:45:08;;;;;;;8.80;8.60;;;12.30;99.90;;;;;;5098142;28;20235;-80
2022/10/18 02:47:37;;;;;;;9.30;9.00;;;12.30;99.90;;;;;;5098486;28;20275;-81
2022/10/18 02:50:06;;;;;;;9.30;9.00;;;12.30;99.90;;;;;;5097359;28;20240;-81
2022/10/18 02:52:34;;;;;;;9.17;8.87;;;12.20;99.90;;;;;;5110752;28;20218;-80
2022/10/18 02:55:01;;;;;;;9.20;8.90;;;12.20;99.90;;;;;;5118126;28;20315;-80
2022/10/18 02:57:29;;;;;;;9.20;8.90;;;12.20;99.90;;;;;;5101064;28;20240;-80
2022/10/18 02:59:57;;;;;;;9.03;8.73;;;12.20;99.90;;;;;;5096472;28;20230;-80
2022/10/18 03:02:24;;;;;;;9.20;8.90;;;12.20;99.90;;;;;;5099503;28;20257;-81
2022/10/18 03:04:53;;;;;;;9.20;8.90;;;12.20;99.90;;;;;;5099179;28;20237;-80
2022/10/18 03:07:21;;;;;;;9.20;8.90;;;12.20;99.90;;;;;;5100679;28;20320;-80
2022/10/18 03:09:48;;;;;;;9.13;8.83;;;12.20;99.90;;;;;;5101374;28;20213;-80
2022/10/18 03:12:17;;;;;;;9.00;8.70;;;12.20;99.90;;;;;;5105629;28;20289;-80
2022/10/18 03:14:44;;;;;;;9.00;8.70;;;12.20;99.90;;;;;;5111521;28;20286;-81
2022/10/18 03:17:12;;;;;;;8.83;8.53;;;12.20;99.90;;;;;;5116469;28;20235;-81
2022/10/18 03:19:39;;;;;;;9.00;8.70;;;12.20;99.90;;;;;;5125655;28;20272;-80
2022/10/18 03:22:08;;;;;;;8.60;8.40;;;12.20;99.90;;;;;;5125732;27;20360;-80
2022/10/18 03:24:36;;;;;;;8.50;8.30;;;12.10;99.90;;;;;;5123473;28;20228;-79
2022/10/18 03:27:04;;;;;;;8.70;8.50;;;12.10;99.90;;;;;;5123323;28;20271;-79
2022/10/18 03:29:31;;;;;;;8.70;8.50;;;12.10;99.90;;;;;;5123573;28;20225;-80
2022/10/18 03:31:58;;;;;;;8.50;8.30;;;12.10;99.90;;;;;;5124826;28;20238;-79
2022/10/18 03:34:26;;;;;;;8.23;8.03;;;12.00;99.90;;;;;;5135983;28;20244;-79
2022/10/18 03:36:53;;;;;;;8.30;8.10;;;12.00;99.90;;;;;;5136898;28;20288;-79
2022/10/18 03:39:23;;;;;;;8.33;8.13;;;12.00;99.90;;;;;;5136719;28;20221;-79
2022/10/18 03:41:50;;;;;;;8.40;8.20;;;12.00;99.90;;;;;;5111576;28;20226;-79
2022/10/18 03:44:18;;;;;;;8.30;8.10;;;12.10;99.90;;;;;;5125482;28;20305;-80
2022/10/18 03:46:45;;;;;;;8.10;7.90;;;12.10;99.90;;;;;;5134190;28;20244;-79
2022/10/18 03:49:13;;;;;;;8.40;8.20;;;12.10;99.90;;;;;;5138094;28;20301;-79
2022/10/18 03:51:40;;;;;;;8.60;8.40;;;12.10;99.90;;;;;;5137783;27;20217;-79
2022/10/18 03:54:08;;;;;;;8.53;8.33;;;12.10;99.90;;;;;;5137228;28;20231;-79
2022/10/18 03:56:37;;;;;;;9.20;8.90;;;12.10;99.90;;;;;;5136654;28;20225;-78
2022/10/18 03:59:05;;;;;;;8.90;8.60;;;12.10;99.90;;;;;;5137072;28;20289;-79
2022/10/18 04:01:32;;;;;;;9.10;8.80;;;12.10;99.90;;;;;;5135575;27;20225;-79
2022/10/18 04:04:00;;;;;;;9.10;8.80;;;12.10;99.90;;;;;;5136946;28;20298;-79
2022/10/18 04:06:27;;;;;;;8.70;8.50;;;12.10;99.90;;;;;;5136634;28;20240;-79
2022/10/18 04:08:56;;;;;;;9.00;8.70;;;12.10;99.90;;;;;;5136717;28;20289;-79
2022/10/18 04:11:24;;;;;;;8.67;8.47;;;12.20;99.90;;;;;;5136911;27;20280;-79
2022/10/18 04:13:53;;;;;;;8.57;8.37;;;12.20;99.90;;;;;;5136417;27;20240;-79
2022/10/18 04:16:20;;;;;;;8.57;8.37;;;12.20;99.90;;;;;;5134778;28;20252;-79
2022/10/18 04:18:48;;;;;;;8.80;8.60;;;12.20;99.90;;;;;;5134971;28;20241;-79
2022/10/18 04:21:16;;;;;;;8.40;8.20;;;12.20;99.90;;;;;;5131119;27;20225;-79
2022/10/18 04:23:43;;;;;;;8.47;8.27;;;12.20;99.90;;;;;;5122859;28;20233;-79
2022/10/18 04:26:11;;;;;;;8.60;8.40;;;12.20;99.90;;;;;;5121017;28;20229;-79
2022/10/18 04:28:38;;;;;;;8.60;8.40;;;12.30;99.90;;;;;;5120578;28;20235;-80
2022/10/18 04:31:08;;;;;;;8.63;8.43;;;12.30;99.90;;;;;;5108420;28;20261;-79
2022/10/18 04:33:36;;;;;;;8.30;8.10;;;12.30;99.90;;;;;;5100469;28;20261;-79
2022/10/18 04:36:03;;;;;;;8.67;8.47;;;12.40;99.90;;;;;;5100316;28;20229;-79
2022/10/18 04:38:31;;;;;;;8.57;8.37;;;12.40;99.90;;;;;;5100083;28;20801;-79
2022/10/18 04:40:59;;;;;;;8.60;8.40;;;12.40;99.90;;;;;;5105502;28;20224;-80
2022/10/18 04:43:26;;;;;;;8.57;8.37;;;12.40;99.90;;;;;;5122290;27;20272;-79
2022/10/18 04:45:54;;;;;;;8.80;8.60;;;12.40;99.90;;;;;;5121531;27;20233;-78
2022/10/18 04:48:23;;;;;;;8.57;8.37;;;12.40;99.90;;;;;;5121642;27;20212;-79
2022/10/18 04:50:51;;;;;;;8.50;8.30;;;12.40;99.90;;;;;;5121757;27;20231;-79
2022/10/18 04:53:19;;;;;;;8.70;8.50;;;12.40;99.90;;;;;;5121758;27;20261;-79
2022/10/18 04:55:49;;;;;;;8.80;8.60;;;12.40;99.90;;;;;;5121548;27;20225;-79
2022/10/18 04:58:17;;;;;;;8.60;8.40;;;12.40;99.90;;;;;;5121251;27;20229;-79
2022/10/18 05:00:46;;;;;;;8.70;8.50;;;12.50;99.90;;;;;;5120915;27;20244;-79
2022/10/18 05:03:14;;;;;;;8.37;8.17;;;12.50;99.90;;;;;;5121490;27;20202;-79
2022/10/18 05:05:44;;;;;;;8.40;8.20;;;12.50;99.90;;;;;;5118263;27;20224;-80
2022/10/18 05:08:13;;;;;;;8.60;8.40;;;12.50;99.90;;;;;;5116207;28;20244;-79
2022/10/18 05:10:40;;;;;;;9.10;8.80;;;12.50;99.90;;;;;;5113040;28;20308;-79
2022/10/18 05:13:08;;;;;;;9.00;8.70;;;12.50;99.90;;;;;;5112878;28;20233;-79
2022/10/18 05:15:35;;;;;;;9.10;8.80;;;12.50;99.90;;;;;;5105920;28;20323;-79
2022/10/18 05:18:03;;;;;;;8.93;8.63;;;12.50;99.90;;;;;;5102248;28;20618;-80
2022/10/18 05:20:30;;;;;;;8.90;8.60;;;12.50;99.90;;;;;;5102786;28;20316;-79
2022/10/18 05:22:59;;;;;;;8.77;8.57;;;12.50;99.90;;;;;;5102624;28;20257;-80
2022/10/18 05:25:27;;;;;;;8.77;8.57;;;12.50;99.90;;;;;;5100339;28;20229;-79
2022/10/18 05:27:54;;;;;;;9.20;8.90;;;12.50;99.90;;;;;;5101971;28;20396;-80
2022/10/18 05:32:50;;;;;;;9.40;9.10;;;12.50;99.90;;;;;;5109970;27;20756;-82
2022/10/18 05:35:22;;;;;;;9.50;9.20;;;12.50;99.90;;;;;;5121317;27;20233;-85
2022/10/18 05:37:52;;;;;;;9.03;8.73;;;12.50;99.90;;;;;;5126559;27;20228;-86
2022/10/18 05:40:30;;;;;;;9.60;9.30;;;12.50;99.90;;;;;;5122346;28;20228;-84
2022/10/18 05:42:59;;;;;;;9.50;9.20;;;12.60;99.90;;;;;;5121107;28;20237;-83
2022/10/18 05:45:29;;;;;;;9.60;9.30;;;12.50;99.90;;;;;;5120291;28;20233;-84
2022/10/18 05:47:58;;;;;;;9.40;9.10;;;12.60;99.90;;;;;;5121989;28;20229;-84
2022/10/18 05:50:28;;;;;;;9.43;9.13;;;12.60;99.90;;;;;;5121901;28;20221;-84
2022/10/18 05:52:57;;;;;;;9.30;9.00;;;12.60;99.90;;;;;;5124548;28;20255;-84
2022/10/18 05:58:23;;;;;;;9.37;9.07;;;12.70;99.90;;;;;;5108239;28;20228;-83
2022/10/18 06:00:52;;;;;;;9.20;8.90;;;12.70;99.90;;;;;;5124254;27;20216;-84
2022/10/18 06:03:21;;;;;;;9.17;8.87;;;12.70;99.90;;;;;;5113703;28;20272;-81
2022/10/18 06:05:50;;;;;;;9.00;8.70;;;12.70;99.90;;;;;;5107496;28;20229;-81
2022/10/18 06:08:21;;;;;;;8.67;8.47;;;12.70;99.90;;;;;;5103749;28;20228;-82
2022/10/18 06:10:52;;;;;;;9.03;8.73;;;12.70;99.90;;;;;;5111130;28;20240;-84
2022/10/18 06:13:19;;;;;;;9.13;8.83;;;12.70;99.90;;;;;;5108577;28;20229;-85
2022/10/18 06:15:48;;;;;;;9.00;8.70;;;12.70;99.90;;;;;;5114734;28;20327;-85
2022/10/18 06:18:18;;;;;;;9.13;8.83;;;12.70;99.90;;;;;;5120527;28;20285;-84
2022/10/18 06:20:48;;;;;;;9.10;8.80;;;12.70;99.90;;;;;;5119823;28;20229;-85
2022/10/18 06:23:17;;;;;;;9.10;8.80;;;12.70;99.90;;;;;;5120453;28;20327;-84
2022/10/18 06:25:46;;;;;;;9.10;8.80;;;12.70;99.90;;;;;;5121606;28;20320;-85
2022/10/18 06:28:18;;;;;;;9.20;8.90;;;12.80;99.90;;;;;;5122089;28;20244;-84
2022/10/18 06:30:45;;;;;;;9.20;8.90;;;12.80;99.90;;;;;;5120561;28;20221;-85
2022/10/18 06:33:17;;;;;;;9.20;8.90;;;12.90;99.90;;;;;;5120326;28;20233;-85
2022/10/18 06:35:54;;;;;;;9.10;8.80;;;12.90;99.90;;;;;;5120908;27;20225;-84
2022/10/18 06:38:24;;;;;;;8.80;8.60;;;12.90;99.90;;;;;;5125225;28;20228;-85
2022/10/18 06:40:53;;;;;;;9.20;8.90;;;12.90;99.90;;;;;;5124306;28;20278;-84
2022/10/18 06:43:34;;;;;;;8.80;8.60;;;12.90;99.90;;;;;;5125198;28;20319;-84
2022/10/18 06:46:03;;;;;;;9.10;8.80;;;12.90;99.90;;;;;;5126848;28;20285;-85
2022/10/18 06:48:32;;;;;;;8.70;8.50;;;12.90;99.90;;;;;;5123873;28;20229;-85
2022/10/18 06:51:02;;;;;;;8.40;8.20;;;12.90;99.90;;;;;;5123424;28;20237;-85
2022/10/18 06:53:31;;;;;;;8.30;8.10;;;12.90;99.90;;;;;;5123907;28;20235;-85
2022/10/18 06:56:07;;;;;;;8.70;8.50;;;12.90;99.90;;;;;;5123129;28;20253;-85
2022/10/18 06:58:48;;;;;;;8.60;8.40;;;12.90;99.90;;;;;;5124024;28;20225;-85
2022/10/18 07:01:17;;;;;;;8.90;8.70;;;13.00;99.90;;;;;;5124096;28;20269;-85
2022/10/18 07:03:54;;;;;;;8.87;8.67;;;13.00;99.90;;;;;;5124313;28;20228;-84
2022/10/18 07:06:25;;;;;;;8.60;8.40;;;13.00;99.90;;;;;;5127720;28;20221;-85
2022/10/18 07:08:53;;;;;;;8.37;8.17;;;13.10;99.90;;;;;;5139584;28;20228;-84
2022/10/18 07:11:24;;;;;;;8.57;8.37;;;13.10;99.90;;;;;;5138055;28;20220;-85
2022/10/18 07:14:01;;;;;;;8.60;8.40;;;13.10;99.90;;;;;;5128338;28;21078;-84
2022/10/18 07:16:30;;;;;;;8.60;8.40;;;13.10;99.90;;;;;;5125876;28;20267;-85
2022/10/18 07:18:59;;;;;;;9.03;8.80;;;13.10;99.90;;;;;;5125637;28;20239;-85
2022/10/18 07:21:28;;;;;;;9.00;8.70;;;13.20;99.90;;;;;;5125086;28;20248;-85
2022/10/18 07:24:00;;;;;;;8.70;8.50;;;13.20;99.90;;;;;;5136994;28;20229;-85
2022/10/18 07:26:38;;;;;;;9.10;8.80;;;13.20;99.90;;;;;;5125890;28;20217;-85
2022/10/18 07:29:14;;;;;;;9.20;8.90;;;13.20;99.90;;;;;;5125729;28;20280;-85
2022/10/18 07:31:44;;;;;;;9.13;8.87;;;13.30;99.90;;;;;;5124480;28;20251;-85
2022/10/18 07:34:23;;;;;;;8.87;8.67;;;13.40;99.90;;;;;;5124316;28;20236;-85
2022/10/18 07:36:54;;;;;;;8.60;8.40;;;13.40;99.90;;;;;;5125601;28;20236;-85
2022/10/18 07:39:22;;;;;;;8.70;8.50;;;13.50;99.90;;;;;;5141576;27;20243;-85
2022/10/18 07:41:53;;;;;;;9.33;9.03;;;13.50;99.90;;;;;;5141388;27;20236;-85
2022/10/18 07:44:24;;;;;;;8.70;8.50;;;13.60;99.90;;;;;;5141068;27;20220;-85
2022/10/18 07:49:36;;;;;;;9.20;8.90;;;13.80;99.90;;;;;;5120682;28;20220;-86
2022/10/18 07:52:05;;;;;;;8.90;8.70;;;13.90;99.90;;;;;;5122708;28;20239;-85
2022/10/18 07:54:37;;;;;;;9.03;8.77;;;14.00;99.90;;;;;;5121960;28;20231;-85
2022/10/18 07:57:13;;;;;;;8.80;8.60;;;14.10;99.90;;;;;;5122155;28;20283;-85
2022/10/18 07:59:47;;;;;;;9.00;8.80;;;14.20;99.90;;;;;;5122083;28;20288;-85
2022/10/18 08:02:14;;;;;;;9.23;8.93;;;14.30;99.90;;;;;;5122184;28;20236;-85
2022/10/18 08:04:42;;;;;;;9.23;8.93;;;14.40;99.90;;;;;;5121367;28;20309;-85
2022/10/18 08:07:13;;;;;;;9.13;8.82;;;14.50;99.90;;;;;;5122529;28;20229;-85
2022/10/18 08:09:43;;;;;;;9.30;9.00;;;14.60;99.90;;;;;;5122524;28;20223;-85
2022/10/18 08:12:28;;;;;;;9.48;9.18;;;14.70;99.90;;;;;;5118688;28;20225;-84
2022/10/18 08:15:06;;;;;;;9.70;9.40;;;14.80;99.90;;;;;;5093426;28;20232;-85
2022/10/18 08:17:35;;;;;;;9.50;9.20;;;15.00;99.90;;;;;;5092920;28;20253;-85
2022/10/18 08:20:05;;;;;;;9.57;9.27;;;15.20;99.90;;;;;;5105290;28;20260;-84
2022/10/18 08:22:35;;;;;;;9.50;9.20;;;15.40;99.90;;;;;;5098604;28;20229;-84
2022/10/18 08:25:14;;;;;;;9.43;9.13;;;15.50;99.90;;;;;;5095026;28;20325;-84
2022/10/18 08:27:42;;;;;;;9.70;9.40;;;15.80;99.90;;;;;;5084001;28;20248;-84
2022/10/18 08:30:22;;;;;;;9.57;9.27;;;16.00;99.90;;;;;;5083147;28;20256;-84
2022/10/18 08:32:52;;;;;;;9.63;9.32;;;16.30;99.90;;;;;;5081755;28;20225;-83
2022/10/18 08:35:21;;;;;;;9.40;9.10;;;16.50;99.90;;;;;;5084364;28;20305;-82
2022/10/18 08:37:50;;;;;;;9.30;9.00;;;16.70;99.90;;;;;;5092813;28;20320;-82
2022/10/18 08:40:20;;;;;;;9.38;9.07;;;17.00;99.90;;;;;;5100718;28;20275;-82
2022/10/18 08:43:16;;;;;;;9.20;8.90;;;17.30;99.90;;;;;;5101185;28;20262;-81
2022/10/18 08:45:54;;;;;;;9.70;9.40;;;17.60;99.90;;;;;;5099359;28;20229;-82
2022/10/18 08:48:31;;;;;;;9.93;9.63;;;17.70;99.90;;;;;;5101226;28;20328;-82
2022/10/18 08:51:01;;;;;;;9.63;9.32;;;17.80;99.90;;;;;;5099392;28;20233;-82
2022/10/18 08:53:41;;;;;;;9.30;9.00;;;18.10;99.90;;;;;;5096695;28;20218;-82
2022/10/18 08:56:20;;;;;;;9.50;9.20;;;18.30;99.90;;;;;;5096885;28;20229;-83
2022/10/18 08:58:48;;;;;;;9.75;9.45;;;18.60;99.90;;;;;;5098885;28;20244;-83
2022/10/18 09:01:34;;;;;;;9.52;9.23;;;18.90;99.90;;;;;;5083065;28;20222;-83
2022/10/18 09:04:31;;;;;;;9.68;9.38;;;19.00;99.90;;;;;;5083482;28;20218;-83
2022/10/18 09:07:18;;;;;;;9.43;9.13;;;19.10;99.90;;;;;;5085717;28;20241;-83
2022/10/18 09:09:55;;;;;;;9.80;9.50;;;19.20;99.90;;;;;;5094929;28;20332;-82
2022/10/18 09:12:43;;;;;;;9.57;9.27;;;19.20;99.90;;;;;;5081181;28;20285;-81
2022/10/18 09:15:20;;;;;;;9.50;9.20;;;19.20;99.90;;;;;;5079729;28;20254;-81
2022/10/18 09:18:08;;;;;;;9.20;8.90;;;19.30;99.90;;;;;;5081102;28;20264;-81
2022/10/18 09:20:48;;;;;;;9.57;9.27;;;19.40;99.90;;;;;;5080856;28;20226;-81
2022/10/18 09:23:23;;;;;;;9.70;9.40;;;19.60;99.90;;;;;;5080730;28;20260;-81
2022/10/18 09:26:03;;;;;;;9.95;9.65;;;20.00;99.90;;;;;;5080157;28;20221;-81
2022/10/18 09:28:41;;;;;;;9.90;9.60;;;20.50;99.90;;;;;;5081671;28;20318;-81
2022/10/18 09:31:19;;;;;;;9.80;9.50;;;20.80;99.90;;;;;;5084245;28;20238;-80
2022/10/18 09:33:57;;;;;;;10.00;9.70;;;21.10;99.90;;;;;;5106075;27;20253;-80
2022/10/18 09:36:29;;;;;;;9.80;9.50;;;21.00;99.90;;;;;;5099056;28;20264;-81
2022/10/18 09:39:05;;;;;;;10.05;9.75;;;21.10;99.90;;;;;;5107336;28;20240;-81
2022/10/18 09:41:42;;;;;;;10.02;9.73;;;21.20;99.90;;;;;;5103610;28;20308;-81
2022/10/18 09:44:21;;;;;;;10.10;9.80;;;21.40;99.90;;;;;;5102990;28;20217;-82
2022/10/18 09:47:00;;;;;;;10.10;9.80;;;21.50;99.90;;;;;;5102381;28;20236;-82
2022/10/18 09:49:37;;;;;;;9.95;9.65;;;21.40;99.90;;;;;;5101763;28;20320;-82
2022/10/18 09:52:15;;;;;;;10.07;9.77;;;21.40;99.90;;;;;;5103616;28;20766;-82
2022/10/18 09:54:54;;;;;;;9.85;9.55;;;21.50;99.90;;;;;;5102488;28;20225;-82
2022/10/18 09:57:31;;;;;;;10.10;9.80;;;21.50;99.90;;;;;;5101163;28;20230;-82
2022/10/18 10:00:02;;;;;;;10.00;9.70;;;21.70;99.90;;;;;;5101152;28;20299;-82
2022/10/18 10:02:31;;;;;;;9.90;9.60;;;22.00;99.90;;;;;;5104952;28;20237;-82
2022/10/18 10:05:02;;;;;;;9.80;9.50;;;22.10;99.90;;;;;;5106247;28;20228;-82
2022/10/18 10:07:38;;;;;;;10.20;9.90;;;22.00;99.90;;;;;;5103416;28;20221;-81
2022/10/18 10:10:17;;;;;;;10.38;10.07;;;22.00;99.90;;;;;;5100040;28;20243;-82
2022/10/18 10:12:46;;;;;;;10.50;10.20;;;21.80;99.90;;;;;;5104990;28;20236;-82
2022/10/18 10:15:26;;;;;;;10.35;10.05;;;21.80;99.90;;;;;;5103570;28;20217;-81
2022/10/18 10:18:13;;;;;;;10.10;9.80;;;21.70;99.90;;;;;;5104804;28;20227;-82
2022/10/18 10:20:50;;;;;;;10.10;9.80;;;21.40;99.90;;;;;;5105734;28;20264;-82
2022/10/18 10:23:30;;;;;;;10.00;9.70;;;21.30;99.90;;;;;;5105629;28;20236;-82
2022/10/18 10:26:08;;;;;;;10.18;9.88;;;21.20;99.90;;;;;;5105513;28;20251;-82
2022/10/18 10:28:47;;;;;;;10.15;9.85;;;20.90;99.90;;;;;;5103311;28;20248;-82
2022/10/18 10:31:27;;;;;;;9.95;9.65;;;20.80;99.90;;;;;;5102768;28;20245;-82
2022/10/18 10:34:02;;;;;;;10.27;9.98;;;20.80;99.90;;;;;;5103174;28;20232;-82
2022/10/18 10:36:49;;;;;;;10.80;10.50;;;20.90;99.90;;;;;;5102201;28;20320;-82
2022/10/18 10:39:19;;;;;;;10.70;10.40;;;21.00;99.90;;;;;;5102945;28;20260;-82
2022/10/18 10:41:49;;;;;;;10.40;10.10;;;21.00;99.90;;;;;;5102509;28;20248;-81
2022/10/18 10:44:18;;;;;;;10.70;10.40;;;20.80;99.90;;;;;;5102965;28;20229;-82
2022/10/18 10:46:48;;;;;;;10.48;10.18;;;20.70;99.90;;;;;;5107466;28;21018;-82
2022/10/18 10:49:27;;;;;;;10.40;10.10;;;20.60;99.90;;;;;;5116491;28;20225;-81
2022/10/18 10:52:04;;;;;;;10.15;9.85;;;20.50;99.90;;;;;;5113530;28;20241;-82
2022/10/18 10:54:35;;;;;;;10.40;10.10;;;20.50;99.90;;;;;;5104789;28;20261;-82
2022/10/18 10:57:13;;;;;;;10.32;10.02;;;20.30;99.90;;;;;;5105011;28;20327;-81
2022/10/18 10:59:50;;;;;;;10.40;10.10;;;20.10;99.90;;;;;;5104725;28;20320;-82
2022/10/18 11:02:31;;;;;;;10.50;10.20;;;19.80;99.90;;;;;;5103280;28;20241;-81
2022/10/18 11:05:24;;;;;;;9.90;9.60;;;19.80;99.90;;;;;;5102976;28;20255;-82
2022/10/18 11:08:02;;;;;;;10.30;10.00;;;19.50;99.90;;;;;;5102484;28;20221;-82
2022/10/18 11:10:34;;;;;;;10.23;9.93;;;19.30;99.90;;;;;;5103074;28;20220;-82
2022/10/18 11:13:22;;;;;;;10.20;9.90;;;19.20;99.90;;;;;;5104103;28;20217;-82
2022/10/18 11:15:58;;;;;;;10.10;9.80;;;19.20;99.90;;;;;;5103308;28;20692;-82
2022/10/18 11:18:35;;;;;;;9.55;9.25;;;19.20;99.90;;;;;;5103376;28;20225;-82
2022/10/18 11:21:07;;;;;;;10.00;9.70;;;19.20;99.90;;;;;;5103822;28;20237;-82
2022/10/18 11:23:42;;;;;;;10.10;9.80;;;19.10;99.90;;;;;;5102949;28;20261;-82
2022/10/18 11:26:39;;;;;;;10.10;9.80;;;18.90;99.90;;;;;;5102578;28;20253;-82
2022/10/18 11:29:35;;;;;;;10.40;10.10;;;18.60;99.90;;;;;;5103305;28;20292;-81
2022/10/18 11:32:15;;;;;;;10.30;10.00;;;18.40;99.90;;;;;;5167775;22;20289;-79
2022/10/18 11:35:07;;;;;;;10.30;10.00;;;18.30;99.90;;;;;;5145461;27;20722;-80
2022/10/18 11:37:58;;;;;;;10.77;10.48;;;18.10;99.90;;;;;;5144475;27;20228;-79
2022/10/18 11:40:45;;;;;;;10.30;10.00;;;18.00;99.90;;;;;;5145079;27;20228;-79
2022/10/18 11:43:20;;;;;;;10.30;10.00;;;17.90;99.90;;;;;;5124820;27;20231;-80
2022/10/18 11:45:58;;;;;;;10.40;10.10;;;17.90;99.90;;;;;;5119307;28;20248;-79
2022/10/18 11:49:03;;;;;;;10.32;10.02;;;18.00;99.90;;;;;;5121148;28;20228;-79
2022/10/18 11:51:38;;;;;;;9.98;9.68;;;18.10;99.90;;;;;;5116977;27;20245;-79
2022/10/18 11:54:28;;;;;;;10.10;9.80;;;18.20;99.90;;;;;;5122367;28;20315;-80
2022/10/18 11:57:13;;;;;;;10.00;9.70;;;18.40;99.90;;;;;;5121090;28;20292;-80
2022/10/18 11:59:55;;;;;;;10.00;9.70;;;18.50;99.90;;;;;;5122421;28;20254;-80
2022/10/18 12:02:50;;;;;;;9.95;9.65;;;18.70;99.90;;;;;;5122438;27;20792;-80
2022/10/18 12:05:18;;;;;;;9.85;9.55;;;18.90;99.90;;;;;;5122793;28;20213;-79
2022/10/18 12:07:53;;;;;;;10.00;9.70;;;18.90;99.90;;;;;;5124473;28;20228;-79
2022/10/18 12:10:22;;;;;;;9.77;9.48;;;18.80;99.90;;;;;;5123644;28;20256;-79
2022/10/18 12:12:57;;;;;;;9.73;9.43;;;18.80;99.90;;;;;;5123615;27;20229;-79
2022/10/18 12:15:26;;;;;;;9.80;9.50;;;18.80;99.90;;;;;;5121509;28;20749;-80
2022/10/18 12:17:56;;;;;;;9.70;9.40;;;18.80;99.90;;;;;;5122199;28;20227;-79
2022/10/18 12:20:30;;;;;;;9.50;9.20;;;18.90;99.90;;;;;;5122952;28;20232;-80
2022/10/18 12:23:04;;;;;;;9.13;8.82;;;18.90;99.90;;;;;;5123133;27;20296;-80
2022/10/18 12:25:37;;;;;;;9.15;8.85;;;19.00;99.90;;;;;;5121305;28;20233;-81
2022/10/18 12:28:16;;;;;;;9.10;8.80;;;19.20;99.90;;;;;;5122237;28;20231;-79
2022/10/18 12:30:51;;;;;;;9.20;8.90;;;19.20;99.90;;;;;;5119695;28;20243;-79
2022/10/18 12:33:25;;;;;;;9.18;8.88;;;19.30;99.90;;;;;;5125735;27;20224;-79
2022/10/18 12:36:06;;;;;;;8.95;8.73;;;19.30;99.90;;;;;;5131796;27;20278;-79
2022/10/18 12:38:37;;;;;;;9.32;9.02;;;19.40;99.90;;;;;;5138329;27;20263;-77
2022/10/18 12:41:06;;;;;;;9.23;8.93;;;19.40;99.90;;;;;;5141195;27;20200;-77
2022/10/18 12:43:36;;;;;;;8.98;8.77;;;19.30;99.90;;;;;;5140526;27;20224;-78
2022/10/18 12:46:06;;;;;;;9.50;9.20;;;19.30;99.90;;;;;;5139402;27;20285;-78
2022/10/18 12:48:37;;;;;;;9.40;9.10;;;19.30;99.90;;;;;;5140778;27;20268;-77
2022/10/18 12:51:15;;;;;;;9.10;8.80;;;19.30;99.90;;;;;;5141334;27;20205;-78
2022/10/18 12:53:45;;;;;;;9.20;8.90;;;19.30;99.90;;;;;;5140742;27;20223;-79
2022/10/18 12:56:36;;;;;;;9.00;8.75;;;19.20;99.90;;;;;;5139381;27;20219;-78
2022/10/18 12:59:52;;;;;;;9.18;8.88;;;19.20;99.90;;;;;;5139427;28;20225;-79
2022/10/18 13:02:30;;;;;;;8.90;8.65;;;19.10;99.90;;;;;;5136672;28;20248;-78
2022/10/18 13:04:59;;;;;;;8.82;8.63;;;19.00;99.90;;;;;;5140054;27;20212;-78
2022/10/18 13:07:43;;;;;;;8.93;8.73;;;19.00;99.90;;;;;;5137211;27;20236;-80
2022/10/18 13:10:41;;;;;;;8.55;8.35;;;18.80;99.90;;;;;;5114879;28;20319;-80
2022/10/18 13:13:50;;;;;;;8.68;8.48;;;18.80;99.90;;;;;;5105278;28;20233;-82
2022/10/18 13:16:44;;;;;;;9.40;9.10;;;18.80;99.90;;;;;;5120269;28;20219;-80
2022/10/18 13:19:24;;;;;;;9.30;9.00;;;18.90;99.90;;;;;;5120007;28;20231;-80
2022/10/18 13:22:10;;;;;;;9.45;9.15;;;18.90;99.90;;;;;;5116617;28;20233;-78
2022/10/18 13:24:43;;;;;;;9.30;9.00;;;19.00;99.90;;;;;;5114225;28;20232;-80
2022/10/18 13:27:36;;;;;;;8.43;8.23;;;19.10;99.90;;;;;;5121947;28;20311;-79